sensor_id;sensor_type;location;lat;lon;timestamp;pressure;altitude;pressure_sealevel;temperature;humidity
12219;BME280;6172;42.646;23.344;2023-04-20T00:02:01;94227.56;;;8.88;100.00
12219;BME280;6172;42.646;23.344;2023-04-20T00:04:28;94217.47;;;8.89;100.00
12219;BME280;6172;42.646;23.344;2023-04-20T00:06:57;94218.34;;;8.82;100.00
12219;BME280;6172;42.646;23.344;2023-04-20T00:09:25;94213.63;;;8.86;100.00
12219;BME280;6172;42.646;23.344;2023-04-20T00:11:52;94201.75;;;8.77;100.00
12219;BME280;6172;42.646;23.344;2023-04-20T00:14:19;94211.22;;;8.92;100.00
12219;BME280;6172;42.646;23.344;2023-04-20T00:16:47;94211.25;;;8.88;100.00
12219;BME280;6172;42.646;23.344;2023-04-20T00:19:14;94211.66;;;8.87;100.00
12219;BME280;6172;42.646;23.344;2023-04-20T00:21:42;94198.78;;;8.91;100.00
12219;BME280;6172;42.646;23.344;2023-04-20T00:24:10;94199.56;;;8.91;100.00
12219;BME280;6172;42.646;23.344;2023-04-20T00:26:37;94195.97;;;8.75;100.00
12219;BME280;6172;42.646;23.344;2023-04-20T00:29:04;94202.56;;;8.74;100.00
12219;BME280;6172;42.646;23.344;2023-04-20T00:31:31;94196.81;;;8.72;100.00
12219;BME280;6172;42.646;23.344;2023-04-20T00:33:58;94193.56;;;8.80;100.00
12219;BME280;6172;42.646;23.344;2023-04-20T00:36:24;94197.03;;;8.81;100.00
12219;BME280;6172;42.646;23.344;2023-04-20T00:38:52;94196.69;;;8.79;100.00
12219;BME280;6172;42.646;23.344;2023-04-20T00:41:20;94196.94;;;8.88;100.00
12219;BME280;6172;42.646;23.344;2023-04-20T00:43:51;94196.19;;;8.84;100.00
12219;BME280;6172;42.646;23.344;2023-04-20T00:46:18;94195.66;;;8.92;100.00
12219;BME280;6172;42.646;23.344;2023-04-20T00:48:45;94188.34;;;8.89;100.00
12219;BME280;6172;42.646;23.344;2023-04-20T00:51:12;94179.03;;;8.67;100.00
12219;BME280;6172;42.646;23.344;2023-04-20T00:53:39;94191.56;;;8.58;100.00
12219;BME280;6172;42.646;23.344;2023-04-20T00:56:06;94185.66;;;8.66;100.00
12219;BME280;6172;42.646;23.344;2023-04-20T00:58:35;94183.75;;;8.63;100.00
12219;BME280;6172;42.646;23.344;2023-04-20T01:01:04;94185.50;;;8.50;100.00
12219;BME280;6172;42.646;23.344;2023-04-20T01:03:32;94184.84;;;8.43;100.00
12219;BME280;6172;42.646;23.344;2023-04-20T01:05:59;94187.59;;;8.39;100.00
12219;BME280;6172;42.646;23.344;2023-04-20T01:08:26;94191.09;;;8.40;100.00
12219;BME280;6172;42.646;23.344;2023-04-20T01:10:53;94188.81;;;8.35;100.00
12219;BME280;6172;42.646;23.344;2023-04-20T01:13:20;94191.91;;;8.37;100.00
12219;BME280;6172;42.646;23.344;2023-04-20T01:15:49;94202.50;;;8.28;100.00
12219;BME280;6172;42.646;23.344;2023-04-20T01:18:17;94197.31;;;8.40;100.00
12219;BME280;6172;42.646;23.344;2023-04-20T01:20:44;94195.84;;;8.32;100.00
12219;BME280;6172;42.646;23.344;2023-04-20T01:23:13;94195.38;;;8.10;100.00
12219;BME280;6172;42.646;23.344;2023-04-20T01:25:40;94204.00;;;8.05;100.00
12219;BME280;6172;42.646;23.344;2023-04-20T01:28:07;94195.47;;;8.03;100.00
12219;BME280;6172;42.646;23.344;2023-04-20T01:30:36;94192.34;;;8.05;100.00
12219;BME280;6172;42.646;23.344;2023-04-20T01:33:03;94195.53;;;8.00;100.00
12219;BME280;6172;42.646;23.344;2023-04-20T01:35:30;94197.84;;;8.01;100.00
12219;BME280;6172;42.646;23.344;2023-04-20T01:37:56;94192.34;;;8.05;100.00
12219;BME280;6172;42.646;23.344;2023-04-20T01:40:25;94198.66;;;7.98;100.00
12219;BME280;6172;42.646;23.344;2023-04-20T01:42:52;94189.38;;;7.96;100.00
12219;BME280;6172;42.646;23.344;2023-04-20T01:45:19;94194.16;;;7.88;100.00
12219;BME280;6172;42.646;23.344;2023-04-20T01:47:49;94189.03;;;7.94;100.00
12219;BME280;6172;42.646;23.344;2023-04-20T01:50:16;94185.84;;;7.99;100.00
12219;BME280;6172;42.646;23.344;2023-04-20T01:52:45;94186.06;;;8.12;100.00
12219;BME280;6172;42.646;23.344;2023-04-20T01:55:12;94180.00;;;8.00;100.00
12219;BME280;6172;42.646;23.344;2023-04-20T01:57:41;94185.81;;;8.02;100.00
12219;BME280;6172;42.646;23.344;2023-04-20T02:00:09;94190.06;;;8.03;100.00
12219;BME280;6172;42.646;23.344;2023-04-20T02:02:37;94175.78;;;7.99;100.00
12219;BME280;6172;42.646;23.344;2023-04-20T02:05:04;94181.59;;;7.98;100.00
12219;BME280;6172;42.646;23.344;2023-04-20T02:07:31;94182.00;;;7.96;100.00
12219;BME280;6172;42.646;23.344;2023-04-20T02:09:58;94177.41;;;7.93;100.00
12219;BME280;6172;42.646;23.344;2023-04-20T02:12:25;94173.44;;;8.01;100.00
12219;BME280;6172;42.646;23.344;2023-04-20T02:14:53;94175.50;;;7.90;100.00
12219;BME280;6172;42.646;23.344;2023-04-20T02:17:20;94173.66;;;8.10;100.00
12219;BME280;6172;42.646;23.344;2023-04-20T02:19:47;94160.25;;;8.00;100.00
12219;BME280;6172;42.646;23.344;2023-04-20T02:22:14;94179.16;;;8.07;100.00
12219;BME280;6172;42.646;23.344;2023-04-20T02:24:41;94167.91;;;8.08;100.00
12219;BME280;6172;42.646;23.344;2023-04-20T02:27:09;94163.03;;;7.96;100.00
12219;BME280;6172;42.646;23.344;2023-04-20T02:29:39;94169.88;;;8.04;100.00
12219;BME280;6172;42.646;23.344;2023-04-20T02:32:08;94176.06;;;8.05;100.00
12219;BME280;6172;42.646;23.344;2023-04-20T02:34:35;94165.31;;;7.98;100.00
12219;BME280;6172;42.646;23.344;2023-04-20T02:37:02;94175.00;;;7.99;100.00
12219;BME280;6172;42.646;23.344;2023-04-20T02:39:29;94165.38;;;7.94;100.00
12219;BME280;6172;42.646;23.344;2023-04-20T02:41:56;94167.94;;;8.05;100.00
12219;BME280;6172;42.646;23.344;2023-04-20T02:44:22;94178.84;;;8.01;100.00
12219;BME280;6172;42.646;23.344;2023-04-20T02:46:49;94172.59;;;8.04;100.00
12219;BME280;6172;42.646;23.344;2023-04-20T02:49:18;94178.84;;;8.01;100.00
12219;BME280;6172;42.646;23.344;2023-04-20T02:51:45;94186.94;;;8.05;100.00
12219;BME280;6172;42.646;23.344;2023-04-20T02:54:11;94178.16;;;8.21;100.00
12219;BME280;6172;42.646;23.344;2023-04-20T02:56:38;94186.78;;;8.16;100.00
12219;BME280;6172;42.646;23.344;2023-04-20T02:59:05;94179.31;;;8.23;100.00
12219;BME280;6172;42.646;23.344;2023-04-20T03:01:32;94180.38;;;8.29;100.00
12219;BME280;6172;42.646;23.344;2023-04-20T03:03:59;94171.88;;;8.27;100.00
12219;BME280;6172;42.646;23.344;2023-04-20T03:06:27;94170.44;;;8.19;100.00
12219;BME280;6172;42.646;23.344;2023-04-20T03:08:54;94181.00;;;8.13;100.00
12219;BME280;6172;42.646;23.344;2023-04-20T03:11:22;94178.53;;;8.23;100.00
12219;BME280;6172;42.646;23.344;2023-04-20T03:13:49;94179.97;;;8.04;100.00
12219;BME280;6172;42.646;23.344;2023-04-20T03:16:15;94171.72;;;8.11;100.00
12219;BME280;6172;42.646;23.344;2023-04-20T03:18:43;94177.47;;;8.17;100.00
12219;BME280;6172;42.646;23.344;2023-04-20T03:21:10;94168.66;;;8.09;100.00
12219;BME280;6172;42.646;23.344;2023-04-20T03:23:38;94174.53;;;8.04;100.00
12219;BME280;6172;42.646;23.344;2023-04-20T03:26:05;94173.84;;;8.00;100.00
12219;BME280;6172;42.646;23.344;2023-04-20T03:28:32;94170.75;;;7.98;100.00
12219;BME280;6172;42.646;23.344;2023-04-20T03:30:58;94176.31;;;7.87;100.00
12219;BME280;6172;42.646;23.344;2023-04-20T03:33:26;94171.69;;;7.84;100.00
12219;BME280;6172;42.646;23.344;2023-04-20T03:35:53;94179.91;;;8.07;100.00
12219;BME280;6172;42.646;23.344;2023-04-20T03:38:20;94176.84;;;8.05;100.00
12219;BME280;6172;42.646;23.344;2023-04-20T03:40:49;94178.78;;;8.05;100.00
12219;BME280;6172;42.646;23.344;2023-04-20T03:43:15;94179.31;;;7.96;100.00
12219;BME280;6172;42.646;23.344;2023-04-20T03:45:42;94182.28;;;8.05;100.00
12219;BME280;6172;42.646;23.344;2023-04-20T03:48:09;94173.94;;;8.20;100.00
12219;BME280;6172;42.646;23.344;2023-04-20T03:50:36;94181.28;;;8.19;100.00
12219;BME280;6172;42.646;23.344;2023-04-20T03:53:03;94178.66;;;8.16;100.00
12219;BME280;6172;42.646;23.344;2023-04-20T03:55:30;94172.06;;;8.13;100.00
12219;BME280;6172;42.646;23.344;2023-04-20T03:57:58;94183.44;;;8.04;100.00
12219;BME280;6172;42.646;23.344;2023-04-20T04:00:25;94180.13;;;8.20;100.00
12219;BME280;6172;42.646;23.344;2023-04-20T04:02:52;94188.97;;;8.24;100.00
12219;BME280;6172;42.646;23.344;2023-04-20T04:05:19;94191.50;;;8.38;100.00
12219;BME280;6172;42.646;23.344;2023-04-20T04:07:52;94181.13;;;8.30;100.00
12219;BME280;6172;42.646;23.344;2023-04-20T04:10:19;94191.00;;;8.20;100.00
12219;BME280;6172;42.646;23.344;2023-04-20T04:12:46;94191.22;;;8.29;100.00
12219;BME280;6172;42.646;23.344;2023-04-20T04:15:15;94173.81;;;8.27;100.00
12219;BME280;6172;42.646;23.344;2023-04-20T04:17:43;94184.94;;;8.36;100.00
12219;BME280;6172;42.646;23.344;2023-04-20T04:20:11;94195.78;;;8.36;100.00
12219;BME280;6172;42.646;23.344;2023-04-20T04:22:39;94199.53;;;8.45;100.00
12219;BME280;6172;42.646;23.344;2023-04-20T04:25:07;94195.34;;;8.41;100.00
12219;BME280;6172;42.646;23.344;2023-04-20T04:27:34;94184.38;;;8.48;100.00
12219;BME280;6172;42.646;23.344;2023-04-20T04:30:02;94199.84;;;8.51;100.00
12219;BME280;6172;42.646;23.344;2023-04-20T04:32:30;94194.63;;;8.63;100.00
12219;BME280;6172;42.646;23.344;2023-04-20T04:34:59;94186.47;;;8.63;100.00
12219;BME280;6172;42.646;23.344;2023-04-20T04:37:26;94189.63;;;8.58;100.00
12219;BME280;6172;42.646;23.344;2023-04-20T04:39:53;94199.91;;;8.47;100.00
12219;BME280;6172;42.646;23.344;2023-04-20T04:42:20;94193.25;;;8.52;100.00
12219;BME280;6172;42.646;23.344;2023-04-20T04:44:47;94196.66;;;8.56;100.00
12219;BME280;6172;42.646;23.344;2023-04-20T04:47:16;94206.22;;;8.64;100.00
12219;BME280;6172;42.646;23.344;2023-04-20T04:49:47;94206.41;;;8.53;100.00
12219;BME280;6172;42.646;23.344;2023-04-20T04:52:14;94210.66;;;8.54;100.00
12219;BME280;6172;42.646;23.344;2023-04-20T04:54:41;94219.63;;;8.51;100.00
12219;BME280;6172;42.646;23.344;2023-04-20T04:57:08;94215.09;;;8.68;100.00
12219;BME280;6172;42.646;23.344;2023-04-20T04:59:35;94216.09;;;8.54;100.00
12219;BME280;6172;42.646;23.344;2023-04-20T05:02:02;94227.25;;;8.60;100.00
12219;BME280;6172;42.646;23.344;2023-04-20T05:04:28;94220.06;;;8.73;100.00
12219;BME280;6172;42.646;23.344;2023-04-20T05:06:57;94212.78;;;8.43;100.00
12219;BME280;6172;42.646;23.344;2023-04-20T05:09:23;94220.53;;;8.45;100.00
12219;BME280;6172;42.646;23.344;2023-04-20T05:11:50;94227.72;;;8.55;100.00
12219;BME280;6172;42.646;23.344;2023-04-20T05:14:17;94210.38;;;8.49;100.00
12219;BME280;6172;42.646;23.344;2023-04-20T05:16:44;94221.72;;;8.67;100.00
12219;BME280;6172;42.646;23.344;2023-04-20T05:19:11;94215.69;;;8.79;100.00
12219;BME280;6172;42.646;23.344;2023-04-20T05:21:38;94213.31;;;8.81;100.00
12219;BME280;6172;42.646;23.344;2023-04-20T05:24:06;94218.53;;;8.72;100.00
12219;BME280;6172;42.646;23.344;2023-04-20T05:26:33;94216.13;;;8.77;100.00
12219;BME280;6172;42.646;23.344;2023-04-20T05:29:00;94210.25;;;8.79;100.00
12219;BME280;6172;42.646;23.344;2023-04-20T05:31:27;94222.53;;;8.87;100.00
12219;BME280;6172;42.646;23.344;2023-04-20T05:33:55;94217.81;;;8.91;100.00
12219;BME280;6172;42.646;23.344;2023-04-20T05:36:22;94217.53;;;8.85;100.00
12219;BME280;6172;42.646;23.344;2023-04-20T05:38:49;94220.94;;;8.89;100.00
12219;BME280;6172;42.646;23.344;2023-04-20T05:41:17;94222.53;;;8.87;100.00
12219;BME280;6172;42.646;23.344;2023-04-20T05:43:44;94222.41;;;8.94;100.00
12219;BME280;6172;42.646;23.344;2023-04-20T05:46:11;94226.09;;;8.84;100.00
12219;BME280;6172;42.646;23.344;2023-04-20T05:48:38;94230.16;;;8.95;100.00
12219;BME280;6172;42.646;23.344;2023-04-20T05:51:05;94226.84;;;8.84;100.00
12219;BME280;6172;42.646;23.344;2023-04-20T05:53:32;94229.22;;;8.82;100.00
12219;BME280;6172;42.646;23.344;2023-04-20T05:55:58;94214.59;;;8.76;100.00
12219;BME280;6172;42.646;23.344;2023-04-20T05:58:27;94231.22;;;8.78;100.00
12219;BME280;6172;42.646;23.344;2023-04-20T06:00:53;94221.66;;;8.93;100.00
12219;BME280;6172;42.646;23.344;2023-04-20T06:03:21;94222.28;;;9.01;100.00
12219;BME280;6172;42.646;23.344;2023-04-20T06:05:48;94227.22;;;8.86;100.00
12219;BME280;6172;42.646;23.344;2023-04-20T06:08:15;94227.53;;;8.92;100.00
12219;BME280;6172;42.646;23.344;2023-04-20T06:10:43;94221.97;;;8.99;100.00
12219;BME280;6172;42.646;23.344;2023-04-20T06:13:10;94223.59;;;8.93;100.00
12219;BME280;6172;42.646;23.344;2023-04-20T06:15:38;94230.41;;;9.04;100.00
12219;BME280;6172;42.646;23.344;2023-04-20T06:18:05;94226.84;;;8.84;100.00
12219;BME280;6172;42.646;23.344;2023-04-20T06:20:33;94221.72;;;8.90;100.00
12219;BME280;6172;42.646;23.344;2023-04-20T06:23:00;94229.81;;;8.93;100.00
12219;BME280;6172;42.646;23.344;2023-04-20T06:25:27;94237.78;;;9.04;100.00
12219;BME280;6172;42.646;23.344;2023-04-20T06:27:53;94247.81;;;9.07;100.00
12219;BME280;6172;42.646;23.344;2023-04-20T06:30:20;94243.88;;;9.11;100.00
12219;BME280;6172;42.646;23.344;2023-04-20T06:32:49;94239.78;;;9.23;100.00
12219;BME280;6172;42.646;23.344;2023-04-20T06:35:15;94232.88;;;9.18;100.00
12219;BME280;6172;42.646;23.344;2023-04-20T06:37:43;94237.47;;;9.21;100.00
12219;BME280;6172;42.646;23.344;2023-04-20T06:40:10;94237.00;;;9.26;100.00
12219;BME280;6172;42.646;23.344;2023-04-20T06:42:37;94242.59;;;9.19;100.00
12219;BME280;6172;42.646;23.344;2023-04-20T06:45:05;94236.38;;;9.19;100.00
12219;BME280;6172;42.646;23.344;2023-04-20T06:47:33;94242.88;;;9.25;100.00
12219;BME280;6172;42.646;23.344;2023-04-20T06:50:04;94239.34;;;9.05;100.00
12219;BME280;6172;42.646;23.344;2023-04-20T06:52:33;94246.03;;;9.20;100.00
12219;BME280;6172;42.646;23.344;2023-04-20T06:55:01;94253.31;;;9.26;100.00
12219;BME280;6172;42.646;23.344;2023-04-20T06:57:28;94250.78;;;9.16;100.00
12219;BME280;6172;42.646;23.344;2023-04-20T06:59:55;94243.81;;;9.15;100.00
12219;BME280;6172;42.646;23.344;2023-04-20T07:02:23;94259.22;;;8.98;100.00
12219;BME280;6172;42.646;23.344;2023-04-20T07:04:50;94260.59;;;9.10;100.00
12219;BME280;6172;42.646;23.344;2023-04-20T07:07:18;94264.22;;;9.03;100.00
12219;BME280;6172;42.646;23.344;2023-04-20T07:09:45;94271.41;;;9.13;100.00
12219;BME280;6172;42.646;23.344;2023-04-20T07:12:12;94270.94;;;8.95;100.00
12219;BME280;6172;42.646;23.344;2023-04-20T07:14:40;94269.25;;;9.05;100.00
12219;BME280;6172;42.646;23.344;2023-04-20T07:17:06;94260.25;;;9.08;100.00
12219;BME280;6172;42.646;23.344;2023-04-20T07:19:33;94258.13;;;9.19;100.00
12219;BME280;6172;42.646;23.344;2023-04-20T07:22:00;94268.44;;;9.27;100.00
12219;BME280;6172;42.646;23.344;2023-04-20T07:24:28;94271.88;;;9.31;100.00
12219;BME280;6172;42.646;23.344;2023-04-20T07:26:55;94267.03;;;9.42;100.00
12219;BME280;6172;42.646;23.344;2023-04-20T07:29:22;94260.56;;;9.56;100.00
12219;BME280;6172;42.646;23.344;2023-04-20T07:31:49;94265.44;;;9.64;100.00
12219;BME280;6172;42.646;23.344;2023-04-20T07:34:16;94262.84;;;9.77;100.00
12219;BME280;6172;42.646;23.344;2023-04-20T07:36:43;94262.22;;;9.92;100.00
12219;BME280;6172;42.646;23.344;2023-04-20T07:39:10;94253.97;;;9.96;100.00
12219;BME280;6172;42.646;23.344;2023-04-20T07:41:38;94255.22;;;10.11;100.00
12219;BME280;6172;42.646;23.344;2023-04-20T07:44:05;94252.66;;;10.20;100.00
12219;BME280;6172;42.646;23.344;2023-04-20T07:46:32;94257.47;;;10.32;100.00
12219;BME280;6172;42.646;23.344;2023-04-20T07:48:58;94239.69;;;10.63;100.00
12219;BME280;6172;42.646;23.344;2023-04-20T07:51:25;94243.56;;;10.62;100.00
12219;BME280;6172;42.646;23.344;2023-04-20T07:53:54;94254.00;;;10.83;100.00
12219;BME280;6172;42.646;23.344;2023-04-20T07:56:21;94243.84;;;11.16;100.00
12219;BME280;6172;42.646;23.344;2023-04-20T07:58:50;94249.03;;;11.26;100.00
12219;BME280;6172;42.646;23.344;2023-04-20T08:01:17;94242.53;;;11.52;100.00
12219;BME280;6172;42.646;23.344;2023-04-20T08:03:43;94245.84;;;11.60;100.00
12219;BME280;6172;42.646;23.344;2023-04-20T08:06:10;94246.13;;;11.49;100.00
12219;BME280;6172;42.646;23.344;2023-04-20T08:08:37;94251.59;;;11.49;100.00
12219;BME280;6172;42.646;23.344;2023-04-20T08:11:04;94248.38;;;11.95;100.00
12219;BME280;6172;42.646;23.344;2023-04-20T08:13:32;94258.03;;;11.84;99.07
12219;BME280;6172;42.646;23.344;2023-04-20T08:16:00;94236.75;;;11.50;100.00
12219;BME280;6172;42.646;23.344;2023-04-20T08:18:27;94235.91;;;11.94;100.00
12219;BME280;6172;42.646;23.344;2023-04-20T08:20:54;94247.75;;;12.04;95.21
12219;BME280;6172;42.646;23.344;2023-04-20T08:23:23;94244.31;;;12.41;93.03
12219;BME280;6172;42.646;23.344;2023-04-20T08:25:52;94242.47;;;12.38;90.56
12219;BME280;6172;42.646;23.344;2023-04-20T08:28:20;94238.34;;;12.05;94.20
12219;BME280;6172;42.646;23.344;2023-04-20T08:30:46;94241.19;;;12.01;96.89
12219;BME280;6172;42.646;23.344;2023-04-20T08:33:17;94241.69;;;12.25;95.29
12219;BME280;6172;42.646;23.344;2023-04-20T08:35:44;94228.97;;;11.77;98.94
12219;BME280;6172;42.646;23.344;2023-04-20T08:38:11;94249.06;;;11.99;98.96
12219;BME280;6172;42.646;23.344;2023-04-20T08:40:38;94255.13;;;11.62;100.00
12219;BME280;6172;42.646;23.344;2023-04-20T08:43:05;94258.19;;;11.93;100.00
12219;BME280;6172;42.646;23.344;2023-04-20T08:45:33;94247.78;;;12.16;100.00
12219;BME280;6172;42.646;23.344;2023-04-20T08:48:02;94252.97;;;12.39;96.75
12219;BME280;6172;42.646;23.344;2023-04-20T08:50:32;94248.56;;;12.29;93.70
12219;BME280;6172;42.646;23.344;2023-04-20T08:53:01;94248.66;;;12.26;93.17
12219;BME280;6172;42.646;23.344;2023-04-20T08:55:29;94255.56;;;12.30;93.23
12219;BME280;6172;42.646;23.344;2023-04-20T08:57:56;94248.63;;;12.54;90.79
12219;BME280;6172;42.646;23.344;2023-04-20T09:00:23;94252.84;;;12.43;93.46
12219;BME280;6172;42.646;23.344;2023-04-20T09:02:51;94248.22;;;12.27;93.17
12219;BME280;6172;42.646;23.344;2023-04-20T09:05:25;94252.97;;;12.39;93.45
12219;BME280;6172;42.646;23.344;2023-04-20T09:07:56;94255.63;;;12.14;95.28
12219;BME280;6172;42.646;23.344;2023-04-20T09:10:23;94254.38;;;11.90;98.08
12219;BME280;6172;42.646;23.344;2023-04-20T09:12:51;94263.38;;;12.03;96.34
12219;BME280;6172;42.646;23.344;2023-04-20T09:15:25;94257.44;;;11.92;97.38
12219;BME280;6172;42.646;23.344;2023-04-20T09:17:52;94252.97;;;11.70;100.00
12219;BME280;6172;42.646;23.344;2023-04-20T09:20:29;94258.63;;;11.91;98.79
12219;BME280;6172;42.646;23.344;2023-04-20T09:23:08;94253.97;;;12.04;97.50
12219;BME280;6172;42.646;23.344;2023-04-20T09:25:36;94251.88;;;11.96;95.97
12219;BME280;6172;42.646;23.344;2023-04-20T09:28:03;94253.13;;;12.20;95.44
12219;BME280;6172;42.646;23.344;2023-04-20T09:30:36;94250.00;;;12.46;92.19
12219;BME280;6172;42.646;23.344;2023-04-20T09:33:04;94244.19;;;12.44;91.64
12219;BME280;6172;42.646;23.344;2023-04-20T09:35:32;94244.56;;;12.71;90.23
12219;BME280;6172;42.646;23.344;2023-04-20T09:38:01;94240.97;;;13.00;85.12
12219;BME280;6172;42.646;23.344;2023-04-20T09:40:28;94243.25;;;13.01;84.45
12219;BME280;6172;42.646;23.344;2023-04-20T09:42:58;94250.97;;;13.28;82.17
12219;BME280;6172;42.646;23.344;2023-04-20T09:45:29;94244.38;;;13.84;78.30
12219;BME280;6172;42.646;23.344;2023-04-20T09:47:56;94241.75;;;14.24;73.87
12219;BME280;6172;42.646;23.344;2023-04-20T09:50:24;94234.66;;;14.35;71.48
12219;BME280;6172;42.646;23.344;2023-04-20T09:52:51;94239.50;;;14.53;73.10
12219;BME280;6172;42.646;23.344;2023-04-20T09:55:20;94233.00;;;14.68;71.49
12219;BME280;6172;42.646;23.344;2023-04-20T09:57:51;94227.81;;;14.92;68.55
12219;BME280;6172;42.646;23.344;2023-04-20T10:00:20;94231.03;;;14.69;67.38
12219;BME280;6172;42.646;23.344;2023-04-20T10:02:47;94225.25;;;14.67;67.66
12219;BME280;6172;42.646;23.344;2023-04-20T10:05:14;94221.13;;;15.02;66.06
12219;BME280;6172;42.646;23.344;2023-04-20T10:07:41;94219.03;;;15.15;64.19
12219;BME280;6172;42.646;23.344;2023-04-20T10:10:10;94221.84;;;15.42;62.95
12219;BME280;6172;42.646;23.344;2023-04-20T10:12:52;94222.22;;;15.14;63.40
12219;BME280;6172;42.646;23.344;2023-04-20T10:15:19;94214.63;;;15.09;64.09
12219;BME280;6172;42.646;23.344;2023-04-20T10:17:47;94204.19;;;14.94;63.23
12219;BME280;6172;42.646;23.344;2023-04-20T10:20:18;94203.34;;;14.76;64.33
12219;BME280;6172;42.646;23.344;2023-04-20T10:22:46;94215.91;;;14.55;67.00
12219;BME280;6172;42.646;23.344;2023-04-20T10:25:14;94212.00;;;14.35;66.58
12219;BME280;6172;42.646;23.344;2023-04-20T10:27:53;94208.28;;;14.29;68.42
12219;BME280;6172;42.646;23.344;2023-04-20T10:30:22;94205.38;;;14.54;67.12
12219;BME280;6172;42.646;23.344;2023-04-20T10:32:49;94204.63;;;14.93;65.72
12219;BME280;6172;42.646;23.344;2023-04-20T10:35:16;94193.16;;;14.76;64.74
12219;BME280;6172;42.646;23.344;2023-04-20T10:37:48;94202.63;;;14.84;64.48
12219;BME280;6172;42.646;23.344;2023-04-20T10:40:15;94198.22;;;14.56;64.74
12219;BME280;6172;42.646;23.344;2023-04-20T10:42:45;94194.91;;;15.01;62.57
12219;BME280;6172;42.646;23.344;2023-04-20T10:45:14;94198.28;;;15.05;61.80
12219;BME280;6172;42.646;23.344;2023-04-20T10:47:40;94198.03;;;14.81;63.42
12219;BME280;6172;42.646;23.344;2023-04-20T10:50:11;94201.69;;;14.48;63.49
12219;BME280;6172;42.646;23.344;2023-04-20T10:52:39;94197.34;;;14.68;65.13
12219;BME280;6172;42.646;23.344;2023-04-20T10:55:18;94200.31;;;15.32;62.47
12219;BME280;6172;42.646;23.344;2023-04-20T10:57:45;94195.09;;;15.25;62.90
12219;BME280;6172;42.646;23.344;2023-04-20T11:00:15;94196.06;;;15.58;61.38
12219;BME280;6172;42.646;23.344;2023-04-20T11:02:47;94193.06;;;15.92;60.45
12219;BME280;6172;42.646;23.344;2023-04-20T11:05:15;94177.47;;;15.98;59.32
12219;BME280;6172;42.646;23.344;2023-04-20T11:07:47;94181.59;;;15.93;58.19
12219;BME280;6172;42.646;23.344;2023-04-20T11:10:16;94192.09;;;16.13;57.39
12219;BME280;6172;42.646;23.344;2023-04-20T11:12:43;94189.53;;;15.91;57.00
12219;BME280;6172;42.646;23.344;2023-04-20T11:15:10;94181.09;;;16.22;57.38
12219;BME280;6172;42.646;23.344;2023-04-20T11:17:39;94168.25;;;16.19;56.38
12219;BME280;6172;42.646;23.344;2023-04-20T11:20:09;94174.16;;;16.86;55.44
12219;BME280;6172;42.646;23.344;2023-04-20T11:22:38;94177.22;;;17.11;53.93
12219;BME280;6172;42.646;23.344;2023-04-20T11:25:06;94169.84;;;17.17;52.87
12219;BME280;6172;42.646;23.344;2023-04-20T11:27:33;94173.09;;;16.83;53.58
12219;BME280;6172;42.646;23.344;2023-04-20T11:30:00;94180.53;;;17.24;52.71
12219;BME280;6172;42.646;23.344;2023-04-20T11:32:30;94178.31;;;17.14;52.11
12219;BME280;6172;42.646;23.344;2023-04-20T11:35:01;94173.19;;;16.56;52.45
12219;BME280;6172;42.646;23.344;2023-04-20T11:37:29;94172.25;;;16.18;54.06
12219;BME280;6172;42.646;23.344;2023-04-20T11:40:00;94179.44;;;15.97;54.26
12219;BME280;6172;42.646;23.344;2023-04-20T11:42:29;94177.34;;;15.74;54.73
12219;BME280;6172;42.646;23.344;2023-04-20T11:44:55;94179.31;;;15.65;53.68
12219;BME280;6172;42.646;23.344;2023-04-20T11:47:22;94161.13;;;15.67;53.88
12219;BME280;6172;42.646;23.344;2023-04-20T11:49:49;94158.38;;;15.40;55.29
12219;BME280;6172;42.646;23.344;2023-04-20T11:52:18;94168.75;;;15.54;55.32
12219;BME280;6172;42.646;23.344;2023-04-20T11:54:45;94166.31;;;15.65;54.82
12219;BME280;6172;42.646;23.344;2023-04-20T11:57:12;94161.28;;;15.46;55.63
12219;BME280;6172;42.646;23.344;2023-04-20T11:59:39;94162.63;;;15.32;56.45
12219;BME280;6172;42.646;23.344;2023-04-20T12:02:07;94170.25;;;15.10;57.33
12219;BME280;6172;42.646;23.344;2023-04-20T12:04:34;94160.22;;;15.34;56.01
12219;BME280;6172;42.646;23.344;2023-04-20T12:07:01;94156.38;;;15.14;58.05
12219;BME280;6172;42.646;23.344;2023-04-20T12:09:29;94161.06;;;15.13;57.23
12219;BME280;6172;42.646;23.344;2023-04-20T12:12:00;94156.22;;;15.17;57.18
12219;BME280;6172;42.646;23.344;2023-04-20T12:14:27;94162.34;;;15.39;56.24
12219;BME280;6172;42.646;23.344;2023-04-20T12:16:54;94154.97;;;15.00;56.73
12219;BME280;6172;42.646;23.344;2023-04-20T12:19:21;94156.81;;;15.12;56.31
12219;BME280;6172;42.646;23.344;2023-04-20T12:21:48;94158.31;;;14.95;56.21
12219;BME280;6172;42.646;23.344;2023-04-20T12:24:15;94158.63;;;14.97;57.05
12219;BME280;6172;42.646;23.344;2023-04-20T12:26:46;94158.41;;;14.43;60.39
12219;BME280;6172;42.646;23.344;2023-04-20T12:29:13;94150.13;;;14.25;62.38
12219;BME280;6172;42.646;23.344;2023-04-20T12:31:40;94162.38;;;13.90;64.94
12219;BME280;6172;42.646;23.344;2023-04-20T12:34:07;94158.19;;;13.55;69.68
12219;BME280;6172;42.646;23.344;2023-04-20T12:36:34;94164.81;;;13.32;75.67
12219;BME280;6172;42.646;23.344;2023-04-20T12:39:04;94162.84;;;12.99;79.45
12219;BME280;6172;42.646;23.344;2023-04-20T12:41:31;94167.09;;;13.00;82.52
12219;BME280;6172;42.646;23.344;2023-04-20T12:44:00;94166.91;;;12.94;81.80
12219;BME280;6172;42.646;23.344;2023-04-20T12:46:27;94154.75;;;12.95;82.17
12219;BME280;6172;42.646;23.344;2023-04-20T12:48:53;94152.16;;;12.79;84.36
12219;BME280;6172;42.646;23.344;2023-04-20T12:51:20;94152.13;;;13.04;93.05
12219;BME280;6172;42.646;23.344;2023-04-20T12:53:47;94154.69;;;13.20;92.38
12219;BME280;6172;42.646;23.344;2023-04-20T12:56:14;94156.19;;;13.55;91.62
12219;BME280;6172;42.646;23.344;2023-04-20T12:58:42;94155.00;;;13.99;85.58
12219;BME280;6172;42.646;23.344;2023-04-20T13:01:10;94140.94;;;14.49;77.08
12219;BME280;6172;42.646;23.344;2023-04-20T13:03:37;94149.19;;;14.98;71.96